This is the latest recevied weather packets stored in our database for station/object OE-11179. If no packets are shown the sender has not sent any weather packets the latest 10 day(s).
| Time | Temp. | Humidity | Pressure | Rain* | Wind** | Luminosity | Snow |
|---|---|---|---|---|---|---|---|
| 1787843132 | 26.11° C | 60% | - | 0 mm | - | - | - |
| 1787842532 | 25.56° C | 67% | - | 0 mm | - | - | - |
| 1787841704 | 26.11° C | 58% | - | 0 mm | - | - | - |
| 1787841332 | 26.11° C | 53% | - | 0 mm | - | - | - |
| 1787839905 | 27.22° C | 47% | - | 0 mm | - | - | - |
| 1787839532 | 27.22° C | 52% | - | 0 mm | - | - | - |
| 1787838932 | 26.67° C | 57% | - | 0 mm | - | - | - |
| 1787838105 | 26.67° C | 51% | - | 0 mm | - | - | - |
| 1787837732 | 27.78° C | 43% | - | 0 mm | - | - | - |
| 1787837132 | 27.78° C | 52% | - | 0 mm | - | - | - |
| 1787836305 | 27.78° C | 45% | - | 0 mm | - | - | - |
| 1787835931 | 27.78° C | 48% | - | 0 mm | - | - | - |
| 1787835332 | 27.78° C | 45% | - | 0 mm | - | - | - |
| 1787834505 | 27.78° C | 46% | - | 0 mm | - | - | - |
| 1787834131 | 27.78° C | 45% | - | 0 mm | - | - | - |
| 1787833532 | 27.78° C | 43% | - | 0 mm | - | - | - |
| 1787832705 | 27.22° C | 47% | - | 0 mm | - | - | - |
| 1787832332 | 27.78° C | 38% | - | 0 mm | - | - | - |
| 1787831731 | 27.22° C | 39% | - | 0 mm | - | - | - |
| 1787830905 | 27.22° C | 43% | - | 0 mm | - | - | - |
| 1787830531 | 26.11° C | 48% | - | 0 mm | - | - | - |
| 1787829931 | 27.22° C | 46% | - | 0 mm | - | - | - |
| 1787829105 | 26.11° C | 49% | - | 0 mm | - | - | - |
| 1787828732 | 25.56° C | 49% | - | 0 mm | - | - | - |
| 1787828132 | 25.56° C | 46% | - | 0 mm | - | - | - |
* Rain latest hour (hover to see other rain measurements)
** Current wind speed in m/s (hover to see current wind gust speed)